sensor_id;sensor_type;location;lat;lon;timestamp;P1;durP1;ratioP1;P2;durP2;ratioP2
59659;SDS011;45534;52.690;6.268;2022-12-20T00:00:01;4.20;;;3.50;;
59659;SDS011;45534;52.690;6.268;2022-12-20T00:02:27;7.40;;;5.13;;
59659;SDS011;45534;52.690;6.268;2022-12-20T00:04:52;4.22;;;3.30;;
59659;SDS011;45534;52.690;6.268;2022-12-20T00:07:18;6.28;;;4.00;;
59659;SDS011;45534;52.690;6.268;2022-12-20T00:09:44;7.78;;;4.22;;
59659;SDS011;45534;52.690;6.268;2022-12-20T00:12:09;6.55;;;4.40;;
59659;SDS011;45534;52.690;6.268;2022-12-20T00:14:35;7.40;;;3.63;;
59659;SDS011;45534;52.690;6.268;2022-12-20T00:17:01;3.92;;;3.58;;
59659;SDS011;45534;52.690;6.268;2022-12-20T00:19:26;6.55;;;5.47;;
59659;SDS011;45534;52.690;6.268;2022-12-20T00:21:52;5.70;;;3.78;;
59659;SDS011;45534;52.690;6.268;2022-12-20T00:24:18;4.93;;;2.97;;
59659;SDS011;45534;52.690;6.268;2022-12-20T00:26:43;6.13;;;4.25;;
59659;SDS011;45534;52.690;6.268;2022-12-20T00:29:09;4.18;;;3.72;;
59659;SDS011;45534;52.690;6.268;2022-12-20T00:31:34;5.20;;;3.10;;
59659;SDS011;45534;52.690;6.268;2022-12-20T00:34:00;6.72;;;3.88;;
59659;SDS011;45534;52.690;6.268;2022-12-20T00:36:27;6.03;;;4.18;;
59659;SDS011;45534;52.690;6.268;2022-12-20T00:38:54;7.65;;;5.55;;
59659;SDS011;45534;52.690;6.268;2022-12-20T00:41:25;5.55;;;3.42;;
59659;SDS011;45534;52.690;6.268;2022-12-20T00:43:53;6.82;;;3.95;;
59659;SDS011;45534;52.690;6.268;2022-12-20T00:46:19;7.00;;;5.47;;
59659;SDS011;45534;52.690;6.268;2022-12-20T00:48:47;8.05;;;4.70;;
59659;SDS011;45534;52.690;6.268;2022-12-20T00:51:20;5.40;;;4.40;;
59659;SDS011;45534;52.690;6.268;2022-12-20T00:53:51;5.07;;;4.43;;
59659;SDS011;45534;52.690;6.268;2022-12-20T00:56:17;5.00;;;3.78;;
59659;SDS011;45534;52.690;6.268;2022-12-20T00:58:43;3.92;;;2.53;;
59659;SDS011;45534;52.690;6.268;2022-12-20T01:01:17;8.35;;;4.30;;
59659;SDS011;45534;52.690;6.268;2022-12-20T01:03:46;10.00;;;5.05;;
59659;SDS011;45534;52.690;6.268;2022-12-20T01:06:12;7.28;;;3.88;;
59659;SDS011;45534;52.690;6.268;2022-12-20T01:08:37;3.47;;;3.00;;
59659;SDS011;45534;52.690;6.268;2022-12-20T01:13:32;8.32;;;4.55;;
59659;SDS011;45534;52.690;6.268;2022-12-20T01:16:12;8.32;;;5.05;;
59659;SDS011;45534;52.690;6.268;2022-12-20T01:18:39;11.98;;;4.75;;
59659;SDS011;45534;52.690;6.268;2022-12-20T01:21:06;4.50;;;3.42;;
59659;SDS011;45534;52.690;6.268;2022-12-20T01:23:34;4.80;;;3.08;;
59659;SDS011;45534;52.690;6.268;2022-12-20T01:26:00;6.95;;;4.22;;
59659;SDS011;45534;52.690;6.268;2022-12-20T01:28:29;8.07;;;3.88;;
59659;SDS011;45534;52.690;6.268;2022-12-20T01:30:55;20.75;;;5.53;;
59659;SDS011;45534;52.690;6.268;2022-12-20T01:33:21;7.75;;;3.85;;
59659;SDS011;45534;52.690;6.268;2022-12-20T01:35:57;6.05;;;4.32;;
59659;SDS011;45534;52.690;6.268;2022-12-20T01:38:24;5.75;;;4.10;;
59659;SDS011;45534;52.690;6.268;2022-12-20T01:40:50;7.32;;;4.47;;
59659;SDS011;45534;52.690;6.268;2022-12-20T01:43:17;7.22;;;4.43;;
59659;SDS011;45534;52.690;6.268;2022-12-20T01:45:43;4.07;;;3.70;;
59659;SDS011;45534;52.690;6.268;2022-12-20T01:48:11;7.40;;;3.00;;
59659;SDS011;45534;52.690;6.268;2022-12-20T01:50:40;4.32;;;3.33;;
59659;SDS011;45534;52.690;6.268;2022-12-20T01:53:06;6.20;;;5.57;;
59659;SDS011;45534;52.690;6.268;2022-12-20T01:55:32;4.38;;;3.75;;
59659;SDS011;45534;52.690;6.268;2022-12-20T01:58:04;4.43;;;2.88;;
59659;SDS011;45534;52.690;6.268;2022-12-20T02:00:32;7.40;;;4.05;;
59659;SDS011;45534;52.690;6.268;2022-12-20T02:02:58;4.22;;;3.60;;
59659;SDS011;45534;52.690;6.268;2022-12-20T02:05:32;6.43;;;2.95;;
59659;SDS011;45534;52.690;6.268;2022-12-20T02:08:00;6.85;;;3.72;;
59659;SDS011;45534;52.690;6.268;2022-12-20T02:10:27;3.30;;;3.00;;
59659;SDS011;45534;52.690;6.268;2022-12-20T02:13:05;4.00;;;3.08;;
59659;SDS011;45534;52.690;6.268;2022-12-20T02:30:26;5.72;;;3.10;;
59659;SDS011;45534;52.690;6.268;2022-12-20T02:35:04;10.10;;;3.83;;
59659;SDS011;45534;52.690;6.268;2022-12-20T02:37:32;9.32;;;4.43;;
59659;SDS011;45534;52.690;6.268;2022-12-20T02:39:58;5.18;;;3.83;;
59659;SDS011;45534;52.690;6.268;2022-12-20T02:42:25;6.80;;;3.92;;
59659;SDS011;45534;52.690;6.268;2022-12-20T02:44:53;7.22;;;5.07;;
59659;SDS011;45534;52.690;6.268;2022-12-20T02:47:51;13.32;;;4.60;;
59659;SDS011;45534;52.690;6.268;2022-12-20T02:50:30;5.90;;;4.65;;
59659;SDS011;45534;52.690;6.268;2022-12-20T02:53:00;7.72;;;5.18;;
59659;SDS011;45534;52.690;6.268;2022-12-20T02:56:01;11.32;;;4.60;;
59659;SDS011;45534;52.690;6.268;2022-12-20T02:58:35;5.15;;;4.15;;
59659;SDS011;45534;52.690;6.268;2022-12-20T03:01:17;8.60;;;5.60;;
59659;SDS011;45534;52.690;6.268;2022-12-20T03:03:48;3.85;;;3.30;;
59659;SDS011;45534;52.690;6.268;2022-12-20T03:06:16;5.20;;;3.83;;
59659;SDS011;45534;52.690;6.268;2022-12-20T03:08:41;10.20;;;3.67;;
59659;SDS011;45534;52.690;6.268;2022-12-20T03:11:07;5.53;;;4.13;;
59659;SDS011;45534;52.690;6.268;2022-12-20T03:13:33;7.18;;;4.22;;
59659;SDS011;45534;52.690;6.268;2022-12-20T03:15:59;13.70;;;5.88;;
59659;SDS011;45534;52.690;6.268;2022-12-20T03:18:24;5.22;;;4.38;;
59659;SDS011;45534;52.690;6.268;2022-12-20T03:20:50;6.30;;;4.32;;
59659;SDS011;45534;52.690;6.268;2022-12-20T03:23:16;5.30;;;3.65;;
59659;SDS011;45534;52.690;6.268;2022-12-20T03:25:41;4.65;;;3.45;;
59659;SDS011;45534;52.690;6.268;2022-12-20T03:28:07;4.15;;;3.17;;
59659;SDS011;45534;52.690;6.268;2022-12-20T03:30:33;6.63;;;4.05;;
59659;SDS011;45534;52.690;6.268;2022-12-20T03:32:58;5.82;;;4.10;;
59659;SDS011;45534;52.690;6.268;2022-12-20T03:35:24;7.97;;;4.30;;
59659;SDS011;45534;52.690;6.268;2022-12-20T03:37:50;7.70;;;4.22;;
59659;SDS011;45534;52.690;6.268;2022-12-20T03:40:15;6.90;;;4.38;;
59659;SDS011;45534;52.690;6.268;2022-12-20T03:42:43;9.18;;;4.38;;
59659;SDS011;45534;52.690;6.268;2022-12-20T03:45:09;29.45;;;4.85;;
59659;SDS011;45534;52.690;6.268;2022-12-20T03:47:35;5.57;;;3.95;;
59659;SDS011;45534;52.690;6.268;2022-12-20T03:50:00;9.77;;;6.75;;
59659;SDS011;45534;52.690;6.268;2022-12-20T03:52:26;6.22;;;4.55;;
59659;SDS011;45534;52.690;6.268;2022-12-20T03:54:52;4.53;;;4.07;;
59659;SDS011;45534;52.690;6.268;2022-12-20T03:57:20;9.35;;;4.53;;
59659;SDS011;45534;52.690;6.268;2022-12-20T03:59:46;6.30;;;3.72;;
59659;SDS011;45534;52.690;6.268;2022-12-20T04:02:12;5.35;;;3.88;;
59659;SDS011;45534;52.690;6.268;2022-12-20T04:04:38;6.32;;;4.57;;
59659;SDS011;45534;52.690;6.268;2022-12-20T04:07:03;9.20;;;4.45;;
59659;SDS011;45534;52.690;6.268;2022-12-20T04:09:29;5.32;;;4.10;;
59659;SDS011;45534;52.690;6.268;2022-12-20T04:11:55;5.07;;;4.28;;
59659;SDS011;45534;52.690;6.268;2022-12-20T04:14:20;19.40;;;5.60;;
59659;SDS011;45534;52.690;6.268;2022-12-20T04:16:46;5.28;;;4.03;;
59659;SDS011;45534;52.690;6.268;2022-12-20T04:19:11;5.15;;;4.22;;
59659;SDS011;45534;52.690;6.268;2022-12-20T04:21:37;10.32;;;3.65;;
59659;SDS011;45534;52.690;6.268;2022-12-20T04:24:03;5.72;;;3.83;;
59659;SDS011;45534;52.690;6.268;2022-12-20T04:26:29;5.85;;;4.00;;
59659;SDS011;45534;52.690;6.268;2022-12-20T04:28:56;5.85;;;4.50;;
59659;SDS011;45534;52.690;6.268;2022-12-20T04:31:22;7.40;;;4.38;;
59659;SDS011;45534;52.690;6.268;2022-12-20T04:33:48;5.88;;;3.90;;
59659;SDS011;45534;52.690;6.268;2022-12-20T04:36:13;7.38;;;4.35;;
59659;SDS011;45534;52.690;6.268;2022-12-20T04:38:40;7.18;;;3.63;;
59659;SDS011;45534;52.690;6.268;2022-12-20T04:41:06;4.00;;;3.60;;
59659;SDS011;45534;52.690;6.268;2022-12-20T04:43:31;9.80;;;4.57;;
59659;SDS011;45534;52.690;6.268;2022-12-20T04:45:57;5.63;;;3.97;;
59659;SDS011;45534;52.690;6.268;2022-12-20T04:48:24;6.03;;;4.28;;
59659;SDS011;45534;52.690;6.268;2022-12-20T04:50:51;4.78;;;3.15;;
59659;SDS011;45534;52.690;6.268;2022-12-20T04:53:18;4.70;;;3.67;;
59659;SDS011;45534;52.690;6.268;2022-12-20T04:56:03;6.13;;;3.55;;
59659;SDS011;45534;52.690;6.268;2022-12-20T04:58:30;6.57;;;4.50;;
59659;SDS011;45534;52.690;6.268;2022-12-20T05:00:56;5.20;;;3.75;;
59659;SDS011;45534;52.690;6.268;2022-12-20T05:03:22;4.90;;;3.42;;
59659;SDS011;45534;52.690;6.268;2022-12-20T05:05:49;6.53;;;4.13;;
59659;SDS011;45534;52.690;6.268;2022-12-20T05:08:15;7.93;;;3.88;;
59659;SDS011;45534;52.690;6.268;2022-12-20T05:10:41;5.93;;;3.67;;
59659;SDS011;45534;52.690;6.268;2022-12-20T05:13:06;5.20;;;3.60;;
59659;SDS011;45534;52.690;6.268;2022-12-20T05:15:32;6.43;;;4.38;;
59659;SDS011;45534;52.690;6.268;2022-12-20T05:17:58;4.03;;;3.67;;
59659;SDS011;45534;52.690;6.268;2022-12-20T05:20:28;4.38;;;3.60;;
59659;SDS011;45534;52.690;6.268;2022-12-20T05:22:55;5.97;;;3.90;;
59659;SDS011;45534;52.690;6.268;2022-12-20T05:25:39;4.32;;;3.35;;
59659;SDS011;45534;52.690;6.268;2022-12-20T05:28:30;7.90;;;3.90;;
59659;SDS011;45534;52.690;6.268;2022-12-20T05:30:56;6.15;;;4.22;;
59659;SDS011;45534;52.690;6.268;2022-12-20T05:33:21;4.53;;;3.35;;
59659;SDS011;45534;52.690;6.268;2022-12-20T05:35:47;6.30;;;4.68;;
59659;SDS011;45534;52.690;6.268;2022-12-20T05:38:13;5.65;;;3.83;;
59659;SDS011;45534;52.690;6.268;2022-12-20T05:40:39;4.60;;;3.28;;
59659;SDS011;45534;52.690;6.268;2022-12-20T05:43:05;6.22;;;3.47;;
59659;SDS011;45534;52.690;6.268;2022-12-20T05:45:32;4.25;;;2.85;;
59659;SDS011;45534;52.690;6.268;2022-12-20T05:47:58;7.80;;;4.05;;
59659;SDS011;45534;52.690;6.268;2022-12-20T05:50:24;3.25;;;2.95;;
59659;SDS011;45534;52.690;6.268;2022-12-20T05:52:50;5.72;;;5.03;;
59659;SDS011;45534;52.690;6.268;2022-12-20T05:55:15;7.80;;;4.65;;
59659;SDS011;45534;52.690;6.268;2022-12-20T05:57:41;5.43;;;3.70;;
59659;SDS011;45534;52.690;6.268;2022-12-20T06:00:07;6.88;;;4.65;;
59659;SDS011;45534;52.690;6.268;2022-12-20T06:02:34;7.32;;;4.03;;
59659;SDS011;45534;52.690;6.268;2022-12-20T06:05:00;3.78;;;3.35;;
59659;SDS011;45534;52.690;6.268;2022-12-20T06:07:26;6.03;;;3.97;;
59659;SDS011;45534;52.690;6.268;2022-12-20T06:09:56;7.28;;;4.45;;
59659;SDS011;45534;52.690;6.268;2022-12-20T06:12:22;5.63;;;3.90;;
59659;SDS011;45534;52.690;6.268;2022-12-20T06:14:48;11.02;;;4.45;;
59659;SDS011;45534;52.690;6.268;2022-12-20T06:17:15;8.02;;;3.40;;
59659;SDS011;45534;52.690;6.268;2022-12-20T06:19:41;7.50;;;4.80;;
59659;SDS011;45534;52.690;6.268;2022-12-20T06:22:07;5.60;;;4.05;;
59659;SDS011;45534;52.690;6.268;2022-12-20T06:24:33;13.75;;;6.10;;
59659;SDS011;45534;52.690;6.268;2022-12-20T06:26:59;6.97;;;4.05;;
59659;SDS011;45534;52.690;6.268;2022-12-20T06:29:26;8.35;;;6.22;;
59659;SDS011;45534;52.690;6.268;2022-12-20T06:31:51;7.25;;;4.80;;
59659;SDS011;45534;52.690;6.268;2022-12-20T06:34:17;13.55;;;5.20;;
59659;SDS011;45534;52.690;6.268;2022-12-20T06:36:43;8.27;;;5.07;;
59659;SDS011;45534;52.690;6.268;2022-12-20T06:39:09;6.03;;;4.30;;
59659;SDS011;45534;52.690;6.268;2022-12-20T06:41:35;15.05;;;6.35;;
59659;SDS011;45534;52.690;6.268;2022-12-20T06:44:01;6.70;;;4.03;;
59659;SDS011;45534;52.690;6.268;2022-12-20T06:46:27;7.43;;;5.03;;
59659;SDS011;45534;52.690;6.268;2022-12-20T06:48:54;9.55;;;4.53;;
59659;SDS011;45534;52.690;6.268;2022-12-20T06:51:20;13.50;;;5.38;;
59659;SDS011;45534;52.690;6.268;2022-12-20T06:53:46;8.05;;;4.78;;
59659;SDS011;45534;52.690;6.268;2022-12-20T06:56:11;6.93;;;5.82;;
59659;SDS011;45534;52.690;6.268;2022-12-20T06:58:37;11.27;;;5.78;;
59659;SDS011;45534;52.690;6.268;2022-12-20T07:01:03;6.85;;;5.30;;
59659;SDS011;45534;52.690;6.268;2022-12-20T07:03:29;7.18;;;5.53;;
59659;SDS011;45534;52.690;6.268;2022-12-20T07:05:54;6.70;;;4.90;;
59659;SDS011;45534;52.690;6.268;2022-12-20T07:08:21;6.28;;;4.13;;
59659;SDS011;45534;52.690;6.268;2022-12-20T07:10:47;16.45;;;5.70;;
59659;SDS011;45534;52.690;6.268;2022-12-20T07:13:13;6.35;;;4.20;;
59659;SDS011;45534;52.690;6.268;2022-12-20T07:15:39;9.45;;;5.55;;
59659;SDS011;45534;52.690;6.268;2022-12-20T07:18:05;8.65;;;5.88;;
59659;SDS011;45534;52.690;6.268;2022-12-20T07:20:31;4.90;;;4.00;;
59659;SDS011;45534;52.690;6.268;2022-12-20T07:22:56;7.40;;;4.65;;
59659;SDS011;45534;52.690;6.268;2022-12-20T07:25:22;9.77;;;5.97;;
59659;SDS011;45534;52.690;6.268;2022-12-20T07:27:49;5.90;;;4.82;;
59659;SDS011;45534;52.690;6.268;2022-12-20T07:30:15;9.55;;;6.05;;
59659;SDS011;45534;52.690;6.268;2022-12-20T07:32:42;7.00;;;3.80;;
59659;SDS011;45534;52.690;6.268;2022-12-20T07:35:08;7.88;;;5.40;;
59659;SDS011;45534;52.690;6.268;2022-12-20T07:37:35;9.35;;;4.38;;
59659;SDS011;45534;52.690;6.268;2022-12-20T07:40:02;8.32;;;4.93;;
59659;SDS011;45534;52.690;6.268;2022-12-20T07:42:28;5.70;;;4.65;;
59659;SDS011;45534;52.690;6.268;2022-12-20T07:44:54;3.72;;;3.20;;
59659;SDS011;45534;52.690;6.268;2022-12-20T07:47:20;5.65;;;3.45;;
59659;SDS011;45534;52.690;6.268;2022-12-20T07:49:46;6.38;;;4.40;;
59659;SDS011;45534;52.690;6.268;2022-12-20T07:52:13;4.80;;;3.97;;
59659;SDS011;45534;52.690;6.268;2022-12-20T07:54:42;3.72;;;3.28;;
59659;SDS011;45534;52.690;6.268;2022-12-20T07:57:14;6.80;;;3.97;;
59659;SDS011;45534;52.690;6.268;2022-12-20T07:59:47;6.25;;;3.88;;
59659;SDS011;45534;52.690;6.268;2022-12-20T08:02:17;7.00;;;4.72;;
59659;SDS011;45534;52.690;6.268;2022-12-20T08:04:46;6.13;;;4.07;;
59659;SDS011;45534;52.690;6.268;2022-12-20T08:07:13;4.80;;;3.20;;
59659;SDS011;45534;52.690;6.268;2022-12-20T08:09:40;8.30;;;5.65;;
59659;SDS011;45534;52.690;6.268;2022-12-20T08:12:08;5.82;;;3.85;;
59659;SDS011;45534;52.690;6.268;2022-12-20T08:14:36;7.88;;;4.10;;
59659;SDS011;45534;52.690;6.268;2022-12-20T08:17:02;4.13;;;3.45;;
59659;SDS011;45534;52.690;6.268;2022-12-20T08:19:27;12.23;;;4.97;;
59659;SDS011;45534;52.690;6.268;2022-12-20T08:21:53;4.82;;;4.03;;
59659;SDS011;45534;52.690;6.268;2022-12-20T08:24:19;6.35;;;3.60;;
59659;SDS011;45534;52.690;6.268;2022-12-20T08:26:44;5.22;;;3.47;;
59659;SDS011;45534;52.690;6.268;2022-12-20T08:29:10;5.65;;;3.10;;
59659;SDS011;45534;52.690;6.268;2022-12-20T08:31:37;7.10;;;3.83;;
59659;SDS011;45534;52.690;6.268;2022-12-20T08:34:03;6.18;;;3.53;;
59659;SDS011;45534;52.690;6.268;2022-12-20T08:36:30;5.47;;;4.57;;
59659;SDS011;45534;52.690;6.268;2022-12-20T08:38:55;5.30;;;3.45;;
59659;SDS011;45534;52.690;6.268;2022-12-20T08:41:21;5.10;;;3.03;;
59659;SDS011;45534;52.690;6.268;2022-12-20T08:43:47;5.95;;;3.55;;
59659;SDS011;45534;52.690;6.268;2022-12-20T08:46:12;6.82;;;3.35;;
59659;SDS011;45534;52.690;6.268;2022-12-20T08:48:38;7.90;;;4.35;;
59659;SDS011;45534;52.690;6.268;2022-12-20T08:51:05;4.47;;;3.20;;
59659;SDS011;45534;52.690;6.268;2022-12-20T08:53:33;3.70;;;3.22;;
59659;SDS011;45534;52.690;6.268;2022-12-20T08:56:07;5.38;;;3.13;;
59659;SDS011;45534;52.690;6.268;2022-12-20T08:58:34;5.50;;;4.05;;
59659;SDS011;45534;52.690;6.268;2022-12-20T09:01:02;14.88;;;3.88;;
59659;SDS011;45534;52.690;6.268;2022-12-20T09:03:30;4.90;;;4.25;;
59659;SDS011;45534;52.690;6.268;2022-12-20T09:05:57;10.02;;;4.40;;
59659;SDS011;45534;52.690;6.268;2022-12-20T09:08:23;7.70;;;4.22;;
59659;SDS011;45534;52.690;6.268;2022-12-20T09:10:49;5.45;;;3.47;;
59659;SDS011;45534;52.690;6.268;2022-12-20T09:13:15;5.72;;;3.90;;
59659;SDS011;45534;52.690;6.268;2022-12-20T09:15:41;7.93;;;3.80;;
59659;SDS011;45534;52.690;6.268;2022-12-20T09:18:09;3.65;;;3.22;;
59659;SDS011;45534;52.690;6.268;2022-12-20T09:20:35;5.00;;;3.50;;
59659;SDS011;45534;52.690;6.268;2022-12-20T09:23:06;5.65;;;3.80;;
59659;SDS011;45534;52.690;6.268;2022-12-20T09:25:31;17.13;;;5.82;;
59659;SDS011;45534;52.690;6.268;2022-12-20T09:27:57;6.07;;;3.70;;
59659;SDS011;45534;52.690;6.268;2022-12-20T09:30:23;4.43;;;3.65;;
59659;SDS011;45534;52.690;6.268;2022-12-20T09:32:49;5.50;;;4.05;;
59659;SDS011;45534;52.690;6.268;2022-12-20T09:35:15;4.35;;;3.25;;
59659;SDS011;45534;52.690;6.268;2022-12-20T09:37:40;6.68;;;4.35;;
59659;SDS011;45534;52.690;6.268;2022-12-20T09:40:06;6.15;;;4.78;;
59659;SDS011;45534;52.690;6.268;2022-12-20T09:42:38;3.55;;;2.65;;
59659;SDS011;45534;52.690;6.268;2022-12-20T09:45:07;5.95;;;3.78;;
59659;SDS011;45534;52.690;6.268;2022-12-20T09:47:40;9.80;;;5.57;;
59659;SDS011;45534;52.690;6.268;2022-12-20T09:50:06;4.82;;;3.65;;
59659;SDS011;45534;52.690;6.268;2022-12-20T10:00:39;6.97;;;4.20;;
59659;SDS011;45534;52.690;6.268;2022-12-20T10:03:09;8.13;;;4.55;;
59659;SDS011;45534;52.690;6.268;2022-12-20T10:11:38;12.43;;;3.15;;
59659;SDS011;45534;52.690;6.268;2022-12-20T10:17:24;6.82;;;4.13;;
59659;SDS011;45534;52.690;6.268;2022-12-20T10:23:09;7.30;;;4.80;;
59659;SDS011;45534;52.690;6.268;2022-12-20T10:25:37;7.93;;;3.88;;
59659;SDS011;45534;52.690;6.268;2022-12-20T10:28:10;6.13;;;3.60;;
59659;SDS011;45534;52.690;6.268;2022-12-20T10:30:39;6.80;;;4.53;;
59659;SDS011;45534;52.690;6.268;2022-12-20T10:33:07;6.47;;;4.80;;
59659;SDS011;45534;52.690;6.268;2022-12-20T10:35:40;5.43;;;3.35;;
59659;SDS011;45534;52.690;6.268;2022-12-20T10:38:08;3.28;;;2.97;;
59659;SDS011;45534;52.690;6.268;2022-12-20T10:40:45;5.60;;;3.70;;
59659;SDS011;45534;52.690;6.268;2022-12-20T10:46:43;6.72;;;4.57;;
59659;SDS011;45534;52.690;6.268;2022-12-20T10:49:23;6.50;;;4.35;;
59659;SDS011;45534;52.690;6.268;2022-12-20T10:51:59;6.13;;;4.13;;
59659;SDS011;45534;52.690;6.268;2022-12-20T10:54:33;4.57;;;3.17;;
59659;SDS011;45534;52.690;6.268;2022-12-20T10:57:27;6.93;;;6.22;;
59659;SDS011;45534;52.690;6.268;2022-12-20T11:02:34;5.40;;;3.40;;
59659;SDS011;45534;52.690;6.268;2022-12-20T11:05:16;8.68;;;5.07;;
59659;SDS011;45534;52.690;6.268;2022-12-20T11:07:57;8.75;;;5.38;;
59659;SDS011;45534;52.690;6.268;2022-12-20T11:10:31;7.28;;;3.90;;
59659;SDS011;45534;52.690;6.268;2022-12-20T11:12:57;6.90;;;4.63;;
59659;SDS011;45534;52.690;6.268;2022-12-20T11:15:25;6.03;;;3.15;;
59659;SDS011;45534;52.690;6.268;2022-12-20T11:17:55;5.43;;;3.55;;
59659;SDS011;45534;52.690;6.268;2022-12-20T11:23:53;5.50;;;3.88;;
59659;SDS011;45534;52.690;6.268;2022-12-20T11:31:19;5.60;;;4.00;;
59659;SDS011;45534;52.690;6.268;2022-12-20T11:42:51;5.82;;;3.78;;
59659;SDS011;45534;52.690;6.268;2022-12-20T11:53:15;4.03;;;3.28;;
59659;SDS011;45534;52.690;6.268;2022-12-20T11:56:08;7.10;;;3.70;;
59659;SDS011;45534;52.690;6.268;2022-12-20T12:01:18;5.38;;;4.57;;
59659;SDS011;45534;52.690;6.268;2022-12-20T12:03:52;8.57;;;4.82;;
59659;SDS011;45534;52.690;6.268;2022-12-20T12:06:26;8.27;;;4.15;;
59659;SDS011;45534;52.690;6.268;2022-12-20T12:11:39;5.20;;;3.38;;
59659;SDS011;45534;52.690;6.268;2022-12-20T12:14:34;7.57;;;3.70;;
59659;SDS011;45534;52.690;6.268;2022-12-20T12:16:58;5.63;;;4.45;;
59659;SDS011;45534;52.690;6.268;2022-12-20T12:19:32;10.10;;;4.68;;
59659;SDS011;45534;52.690;6.268;2022-12-20T12:22:01;7.78;;;4.50;;
59659;SDS011;45534;52.690;6.268;2022-12-20T12:24:34;5.45;;;4.47;;
59659;SDS011;45534;52.690;6.268;2022-12-20T12:27:09;6.22;;;4.22;;
59659;SDS011;45534;52.690;6.268;2022-12-20T12:29:44;7.57;;;5.30;;
59659;SDS011;45534;52.690;6.268;2022-12-20T12:32:14;4.93;;;3.88;;
59659;SDS011;45534;52.690;6.268;2022-12-20T12:35:18;6.68;;;4.82;;
59659;SDS011;45534;52.690;6.268;2022-12-20T12:40:52;7.60;;;4.65;;
59659;SDS011;45534;52.690;6.268;2022-12-20T12:46:17;6.03;;;5.25;;
59659;SDS011;45534;52.690;6.268;2022-12-20T12:51:35;5.88;;;4.70;;
59659;SDS011;45534;52.690;6.268;2022-12-20T12:54:15;9.25;;;4.68;;
59659;SDS011;45534;52.690;6.268;2022-12-20T12:56:48;8.20;;;5.57;;
59659;SDS011;45534;52.690;6.268;2022-12-20T12:59:20;9.80;;;5.85;;
59659;SDS011;45534;52.690;6.268;2022-12-20T13:07:25;8.50;;;5.32;;
59659;SDS011;45534;52.690;6.268;2022-12-20T13:09:51;5.35;;;4.32;;
59659;SDS011;45534;52.690;6.268;2022-12-20T13:18:00;9.73;;;5.07;;
59659;SDS011;45534;52.690;6.268;2022-12-20T13:21:14;10.25;;;6.28;;
59659;SDS011;45534;52.690;6.268;2022-12-20T13:24:25;7.68;;;4.40;;
59659;SDS011;45534;52.690;6.268;2022-12-20T13:26:56;6.63;;;5.20;;
59659;SDS011;45534;52.690;6.268;2022-12-20T13:29:25;6.78;;;5.45;;
59659;SDS011;45534;52.690;6.268;2022-12-20T13:31:52;9.38;;;6.20;;
59659;SDS011;45534;52.690;6.268;2022-12-20T13:37:00;9.00;;;6.13;;
59659;SDS011;45534;52.690;6.268;2022-12-20T13:42:12;4.03;;;3.42;;
59659;SDS011;45534;52.690;6.268;2022-12-20T13:44:49;5.70;;;4.15;;
59659;SDS011;45534;52.690;6.268;2022-12-20T13:47:25;19.85;;;6.50;;
59659;SDS011;45534;52.690;6.268;2022-12-20T13:49:58;6.30;;;4.45;;
59659;SDS011;45534;52.690;6.268;2022-12-20T13:52:33;5.68;;;4.35;;
59659;SDS011;45534;52.690;6.268;2022-12-20T13:55:15;4.47;;;3.25;;
59659;SDS011;45534;52.690;6.268;2022-12-20T13:57:48;7.50;;;4.90;;
59659;SDS011;45534;52.690;6.268;2022-12-20T14:00:17;6.75;;;4.82;;
59659;SDS011;45534;52.690;6.268;2022-12-20T14:02:46;4.70;;;3.75;;
59659;SDS011;45534;52.690;6.268;2022-12-20T14:07:50;10.95;;;5.60;;
59659;SDS011;45534;52.690;6.268;2022-12-20T14:10:45;7.55;;;5.78;;
59659;SDS011;45534;52.690;6.268;2022-12-20T14:13:22;6.28;;;4.82;;
59659;SDS011;45534;52.690;6.268;2022-12-20T14:15:51;7.25;;;5.80;;
59659;SDS011;45534;52.690;6.268;2022-12-20T14:20:58;9.27;;;5.25;;
59659;SDS011;45534;52.690;6.268;2022-12-20T14:23:38;6.63;;;5.93;;
59659;SDS011;45534;52.690;6.268;2022-12-20T14:26:11;6.75;;;5.57;;
59659;SDS011;45534;52.690;6.268;2022-12-20T14:34:12;5.93;;;4.45;;
59659;SDS011;45534;52.690;6.268;2022-12-20T14:36:42;10.40;;;6.32;;
59659;SDS011;45534;52.690;6.268;2022-12-20T14:39:22;7.88;;;5.50;;
59659;SDS011;45534;52.690;6.268;2022-12-20T14:44:43;6.82;;;5.63;;
59659;SDS011;45534;52.690;6.268;2022-12-20T14:47:24;7.88;;;4.50;;
59659;SDS011;45534;52.690;6.268;2022-12-20T14:49:56;7.85;;;5.78;;
59659;SDS011;45534;52.690;6.268;2022-12-20T14:52:29;10.48;;;7.00;;
59659;SDS011;45534;52.690;6.268;2022-12-20T14:55:01;8.57;;;6.50;;
59659;SDS011;45534;52.690;6.268;2022-12-20T15:08:09;13.02;;;6.88;;
59659;SDS011;45534;52.690;6.268;2022-12-20T15:10:35;8.00;;;5.82;;
59659;SDS011;45534;52.690;6.268;2022-12-20T15:13:01;8.88;;;6.00;;
59659;SDS011;45534;52.690;6.268;2022-12-20T15:15:27;7.45;;;5.15;;
59659;SDS011;45534;52.690;6.268;2022-12-20T15:17:53;5.68;;;4.95;;
59659;SDS011;45534;52.690;6.268;2022-12-20T15:20:18;5.15;;;4.20;;
59659;SDS011;45534;52.690;6.268;2022-12-20T15:22:45;8.27;;;5.13;;
59659;SDS011;45534;52.690;6.268;2022-12-20T15:25:14;8.27;;;5.93;;
59659;SDS011;45534;52.690;6.268;2022-12-20T15:27:41;9.45;;;7.72;;
59659;SDS011;45534;52.690;6.268;2022-12-20T15:30:11;8.88;;;5.80;;
59659;SDS011;45534;52.690;6.268;2022-12-20T15:32:40;7.18;;;5.65;;
59659;SDS011;45534;52.690;6.268;2022-12-20T15:35:13;6.55;;;5.22;;
59659;SDS011;45534;52.690;6.268;2022-12-20T15:37:40;7.53;;;4.97;;
59659;SDS011;45534;52.690;6.268;2022-12-20T15:40:06;7.65;;;5.13;;
59659;SDS011;45534;52.690;6.268;2022-12-20T15:42:37;5.77;;;4.73;;
59659;SDS011;45534;52.690;6.268;2022-12-20T15:45:05;7.97;;;6.13;;
59659;SDS011;45534;52.690;6.268;2022-12-20T15:47:35;6.65;;;5.10;;
59659;SDS011;45534;52.690;6.268;2022-12-20T15:50:01;6.00;;;5.13;;
59659;SDS011;45534;52.690;6.268;2022-12-20T15:52:26;13.68;;;7.18;;
59659;SDS011;45534;52.690;6.268;2022-12-20T15:54:52;6.03;;;5.28;;
59659;SDS011;45534;52.690;6.268;2022-12-20T15:57:18;5.85;;;4.82;;
59659;SDS011;45534;52.690;6.268;2022-12-20T15:59:44;8.30;;;4.75;;
59659;SDS011;45534;52.690;6.268;2022-12-20T16:02:31;9.70;;;5.72;;
59659;SDS011;45534;52.690;6.268;2022-12-20T16:04:57;6.35;;;5.03;;
59659;SDS011;45534;52.690;6.268;2022-12-20T16:07:22;11.02;;;7.28;;
59659;SDS011;45534;52.690;6.268;2022-12-20T16:09:48;33.30;;;7.03;;
59659;SDS011;45534;52.690;6.268;2022-12-20T16:12:15;8.75;;;6.07;;
59659;SDS011;45534;52.690;6.268;2022-12-20T16:14:45;13.85;;;8.02;;
59659;SDS011;45534;52.690;6.268;2022-12-20T16:17:11;8.52;;;6.40;;
59659;SDS011;45534;52.690;6.268;2022-12-20T16:19:38;12.25;;;6.43;;
59659;SDS011;45534;52.690;6.268;2022-12-20T16:22:04;7.70;;;5.43;;
59659;SDS011;45534;52.690;6.268;2022-12-20T16:24:34;9.60;;;6.68;;
59659;SDS011;45534;52.690;6.268;2022-12-20T16:26:59;12.65;;;8.65;;
59659;SDS011;45534;52.690;6.268;2022-12-20T16:29:25;12.60;;;7.65;;
59659;SDS011;45534;52.690;6.268;2022-12-20T16:31:51;9.43;;;6.47;;
59659;SDS011;45534;52.690;6.268;2022-12-20T16:34:16;9.77;;;7.45;;
59659;SDS011;45534;52.690;6.268;2022-12-20T16:36:43;12.70;;;8.02;;
59659;SDS011;45534;52.690;6.268;2022-12-20T16:39:10;17.55;;;9.95;;
59659;SDS011;45534;52.690;6.268;2022-12-20T16:41:36;11.63;;;7.65;;
59659;SDS011;45534;52.690;6.268;2022-12-20T16:44:05;11.85;;;8.93;;
59659;SDS011;45534;52.690;6.268;2022-12-20T16:46:35;9.95;;;7.07;;
59659;SDS011;45534;52.690;6.268;2022-12-20T16:49:00;14.57;;;10.35;;
59659;SDS011;45534;52.690;6.268;2022-12-20T16:51:31;18.13;;;9.77;;
59659;SDS011;45534;52.690;6.268;2022-12-20T16:54:01;13.68;;;9.30;;
59659;SDS011;45534;52.690;6.268;2022-12-20T16:56:32;15.05;;;10.20;;
59659;SDS011;45534;52.690;6.268;2022-12-20T16:58:58;13.63;;;10.77;;
59659;SDS011;45534;52.690;6.268;2022-12-20T17:01:27;15.18;;;11.80;;